sensor_id;sensor_type;location;lat;lon;timestamp;P1;durP1;ratioP1;P2;durP2;ratioP2
3755;SDS011;1893;52.526;13.360;2023-06-22T00:00:48;17.60;;;14.33;;
3755;SDS011;1893;52.526;13.360;2023-06-22T00:03:14;16.90;;;14.50;;
3755;SDS011;1893;52.526;13.360;2023-06-22T00:05:40;17.83;;;12.83;;
3755;SDS011;1893;52.526;13.360;2023-06-22T00:08:06;15.60;;;13.67;;
3755;SDS011;1893;52.526;13.360;2023-06-22T00:10:32;14.90;;;13.20;;
3755;SDS011;1893;52.526;13.360;2023-06-22T00:12:57;15.83;;;13.40;;
3755;SDS011;1893;52.526;13.360;2023-06-22T00:15:23;14.80;;;13.40;;
3755;SDS011;1893;52.526;13.360;2023-06-22T00:17:49;14.77;;;13.27;;
3755;SDS011;1893;52.526;13.360;2023-06-22T00:20:16;15.37;;;13.93;;
3755;SDS011;1893;52.526;13.360;2023-06-22T00:22:43;15.43;;;13.23;;
3755;SDS011;1893;52.526;13.360;2023-06-22T00:25:09;15.10;;;13.60;;
3755;SDS011;1893;52.526;13.360;2023-06-22T00:27:35;15.37;;;13.70;;
3755;SDS011;1893;52.526;13.360;2023-06-22T00:30:01;16.67;;;14.57;;
3755;SDS011;1893;52.526;13.360;2023-06-22T00:32:27;15.77;;;14.23;;
3755;SDS011;1893;52.526;13.360;2023-06-22T00:34:53;14.40;;;12.97;;
3755;SDS011;1893;52.526;13.360;2023-06-22T00:37:19;14.30;;;12.90;;
3755;SDS011;1893;52.526;13.360;2023-06-22T00:39:44;15.00;;;13.60;;
3755;SDS011;1893;52.526;13.360;2023-06-22T00:42:10;14.30;;;12.90;;
3755;SDS011;1893;52.526;13.360;2023-06-22T00:44:36;23.63;;;14.80;;
3755;SDS011;1893;52.526;13.360;2023-06-22T00:47:01;14.80;;;13.20;;
3755;SDS011;1893;52.526;13.360;2023-06-22T00:49:28;15.47;;;13.80;;
3755;SDS011;1893;52.526;13.360;2023-06-22T00:51:54;15.97;;;14.33;;
3755;SDS011;1893;52.526;13.360;2023-06-22T00:54:21;15.37;;;13.87;;
3755;SDS011;1893;52.526;13.360;2023-06-22T00:56:58;15.53;;;13.93;;
3755;SDS011;1893;52.526;13.360;2023-06-22T00:59:24;16.23;;;13.93;;
3755;SDS011;1893;52.526;13.360;2023-06-22T01:01:51;15.30;;;13.70;;
3755;SDS011;1893;52.526;13.360;2023-06-22T01:04:17;14.97;;;13.63;;
3755;SDS011;1893;52.526;13.360;2023-06-22T01:06:54;14.40;;;12.87;;
3755;SDS011;1893;52.526;13.360;2023-06-22T01:09:32;14.13;;;12.80;;
3755;SDS011;1893;52.526;13.360;2023-06-22T01:12:04;15.00;;;13.10;;
3755;SDS011;1893;52.526;13.360;2023-06-22T01:14:38;14.63;;;13.13;;
3755;SDS011;1893;52.526;13.360;2023-06-22T01:17:08;14.47;;;13.00;;
3755;SDS011;1893;52.526;13.360;2023-06-22T01:22:16;15.50;;;13.63;;
3755;SDS011;1893;52.526;13.360;2023-06-22T01:24:55;14.33;;;13.00;;
3755;SDS011;1893;52.526;13.360;2023-06-22T01:30:26;16.77;;;15.07;;
3755;SDS011;1893;52.526;13.360;2023-06-22T01:32:54;13.83;;;12.43;;
3755;SDS011;1893;52.526;13.360;2023-06-22T01:35:21;14.23;;;12.87;;
3755;SDS011;1893;52.526;13.360;2023-06-22T01:37:47;15.03;;;13.30;;
3755;SDS011;1893;52.526;13.360;2023-06-22T01:40:14;13.33;;;12.00;;
3755;SDS011;1893;52.526;13.360;2023-06-22T01:42:40;14.23;;;12.83;;
3755;SDS011;1893;52.526;13.360;2023-06-22T01:45:08;13.80;;;12.60;;
3755;SDS011;1893;52.526;13.360;2023-06-22T01:47:36;15.67;;;13.53;;
3755;SDS011;1893;52.526;13.360;2023-06-22T01:50:02;15.40;;;13.80;;
3755;SDS011;1893;52.526;13.360;2023-06-22T01:52:28;16.10;;;12.70;;
3755;SDS011;1893;52.526;13.360;2023-06-22T01:54:54;15.23;;;13.77;;
3755;SDS011;1893;52.526;13.360;2023-06-22T01:57:19;14.20;;;12.40;;
3755;SDS011;1893;52.526;13.360;2023-06-22T02:02:23;17.93;;;14.10;;
3755;SDS011;1893;52.526;13.360;2023-06-22T02:04:59;15.57;;;13.87;;
3755;SDS011;1893;52.526;13.360;2023-06-22T02:07:32;15.80;;;14.30;;
3755;SDS011;1893;52.526;13.360;2023-06-22T02:10:07;16.10;;;14.40;;
3755;SDS011;1893;52.526;13.360;2023-06-22T02:12:37;16.80;;;14.13;;
3755;SDS011;1893;52.526;13.360;2023-06-22T02:15:03;16.93;;;14.50;;
3755;SDS011;1893;52.526;13.360;2023-06-22T02:17:30;17.17;;;15.03;;
3755;SDS011;1893;52.526;13.360;2023-06-22T02:19:58;21.40;;;15.50;;
3755;SDS011;1893;52.526;13.360;2023-06-22T02:22:24;16.00;;;14.43;;
3755;SDS011;1893;52.526;13.360;2023-06-22T02:24:49;17.77;;;15.27;;
3755;SDS011;1893;52.526;13.360;2023-06-22T02:27:15;17.30;;;15.70;;
3755;SDS011;1893;52.526;13.360;2023-06-22T02:29:41;18.57;;;16.67;;
3755;SDS011;1893;52.526;13.360;2023-06-22T02:32:06;21.00;;;17.00;;
3755;SDS011;1893;52.526;13.360;2023-06-22T02:34:32;19.13;;;16.27;;
3755;SDS011;1893;52.526;13.360;2023-06-22T02:36:58;18.80;;;16.80;;
3755;SDS011;1893;52.526;13.360;2023-06-22T02:39:27;18.87;;;17.07;;
3755;SDS011;1893;52.526;13.360;2023-06-22T02:41:53;17.27;;;15.37;;
3755;SDS011;1893;52.526;13.360;2023-06-22T02:44:20;23.40;;;18.20;;
3755;SDS011;1893;52.526;13.360;2023-06-22T02:46:46;18.90;;;16.70;;
3755;SDS011;1893;52.526;13.360;2023-06-22T02:49:13;20.60;;;18.43;;
3755;SDS011;1893;52.526;13.360;2023-06-22T02:51:39;18.80;;;16.37;;
3755;SDS011;1893;52.526;13.360;2023-06-22T02:54:07;20.50;;;18.30;;
3755;SDS011;1893;52.526;13.360;2023-06-22T02:56:32;20.37;;;17.23;;
3755;SDS011;1893;52.526;13.360;2023-06-22T02:58:58;20.37;;;17.57;;
3755;SDS011;1893;52.526;13.360;2023-06-22T03:01:27;20.13;;;18.13;;
3755;SDS011;1893;52.526;13.360;2023-06-22T03:03:53;18.67;;;16.77;;
3755;SDS011;1893;52.526;13.360;2023-06-22T03:06:19;19.60;;;17.50;;
3755;SDS011;1893;52.526;13.360;2023-06-22T03:08:48;25.23;;;17.40;;
3755;SDS011;1893;52.526;13.360;2023-06-22T03:11:15;20.00;;;17.97;;
3755;SDS011;1893;52.526;13.360;2023-06-22T03:13:41;19.53;;;17.40;;
3755;SDS011;1893;52.526;13.360;2023-06-22T03:16:06;21.20;;;17.47;;
3755;SDS011;1893;52.526;13.360;2023-06-22T03:18:32;19.87;;;17.77;;
3755;SDS011;1893;52.526;13.360;2023-06-22T03:20:57;23.13;;;17.73;;
3755;SDS011;1893;52.526;13.360;2023-06-22T03:23:23;22.00;;;19.33;;
3755;SDS011;1893;52.526;13.360;2023-06-22T03:25:49;20.27;;;17.93;;
3755;SDS011;1893;52.526;13.360;2023-06-22T03:28:15;22.20;;;17.67;;
3755;SDS011;1893;52.526;13.360;2023-06-22T03:30:40;22.40;;;17.17;;
3755;SDS011;1893;52.526;13.360;2023-06-22T03:33:06;20.33;;;18.00;;
3755;SDS011;1893;52.526;13.360;2023-06-22T03:35:32;18.57;;;16.30;;
3755;SDS011;1893;52.526;13.360;2023-06-22T03:37:57;20.17;;;17.57;;
3755;SDS011;1893;52.526;13.360;2023-06-22T03:40:23;19.97;;;17.87;;
3755;SDS011;1893;52.526;13.360;2023-06-22T03:42:48;18.47;;;16.30;;
3755;SDS011;1893;52.526;13.360;2023-06-22T03:45:14;17.60;;;15.90;;
3755;SDS011;1893;52.526;13.360;2023-06-22T03:47:40;15.73;;;14.10;;
3755;SDS011;1893;52.526;13.360;2023-06-22T03:50:06;16.83;;;14.90;;
3755;SDS011;1893;52.526;13.360;2023-06-22T03:52:32;14.53;;;13.20;;
3755;SDS011;1893;52.526;13.360;2023-06-22T03:54:57;15.40;;;13.80;;
3755;SDS011;1893;52.526;13.360;2023-06-22T03:57:23;14.93;;;13.40;;
3755;SDS011;1893;52.526;13.360;2023-06-22T03:59:49;13.57;;;12.37;;
3755;SDS011;1893;52.526;13.360;2023-06-22T04:02:15;13.33;;;11.93;;
3755;SDS011;1893;52.526;13.360;2023-06-22T04:04:40;13.17;;;11.87;;
3755;SDS011;1893;52.526;13.360;2023-06-22T04:07:06;17.83;;;12.37;;
3755;SDS011;1893;52.526;13.360;2023-06-22T04:09:32;15.60;;;12.53;;
3755;SDS011;1893;52.526;13.360;2023-06-22T04:11:58;14.20;;;11.93;;
3755;SDS011;1893;52.526;13.360;2023-06-22T04:14:23;11.80;;;10.60;;
3755;SDS011;1893;52.526;13.360;2023-06-22T04:16:49;12.23;;;11.00;;
3755;SDS011;1893;52.526;13.360;2023-06-22T04:19:15;12.40;;;10.33;;
3755;SDS011;1893;52.526;13.360;2023-06-22T04:21:43;11.80;;;10.60;;
3755;SDS011;1893;52.526;13.360;2023-06-22T04:24:09;15.87;;;12.07;;
3755;SDS011;1893;52.526;13.360;2023-06-22T04:26:36;10.97;;;9.83;;
3755;SDS011;1893;52.526;13.360;2023-06-22T04:29:03;12.80;;;10.60;;
3755;SDS011;1893;52.526;13.360;2023-06-22T04:31:31;10.37;;;9.30;;
3755;SDS011;1893;52.526;13.360;2023-06-22T04:34:01;13.50;;;9.80;;
3755;SDS011;1893;52.526;13.360;2023-06-22T04:36:32;10.13;;;9.13;;
3755;SDS011;1893;52.526;13.360;2023-06-22T04:39:09;10.60;;;9.57;;
3755;SDS011;1893;52.526;13.360;2023-06-22T04:41:35;10.20;;;9.07;;
3755;SDS011;1893;52.526;13.360;2023-06-22T04:44:07;10.50;;;8.40;;
3755;SDS011;1893;52.526;13.360;2023-06-22T05:04:57;6.20;;;5.40;;
3755;SDS011;1893;52.526;13.360;2023-06-22T05:07:23;7.23;;;6.40;;
3755;SDS011;1893;52.526;13.360;2023-06-22T05:09:50;8.83;;;6.57;;
3755;SDS011;1893;52.526;13.360;2023-06-22T05:12:16;6.13;;;5.53;;
3755;SDS011;1893;52.526;13.360;2023-06-22T05:14:41;9.43;;;5.60;;
3755;SDS011;1893;52.526;13.360;2023-06-22T05:17:07;9.30;;;5.90;;
3755;SDS011;1893;52.526;13.360;2023-06-22T05:19:38;7.00;;;5.20;;
3755;SDS011;1893;52.526;13.360;2023-06-22T05:22:04;5.33;;;4.83;;
3755;SDS011;1893;52.526;13.360;2023-06-22T05:24:31;5.47;;;4.97;;
3755;SDS011;1893;52.526;13.360;2023-06-22T05:26:57;6.47;;;5.37;;
3755;SDS011;1893;52.526;13.360;2023-06-22T05:29:22;5.63;;;4.90;;
3755;SDS011;1893;52.526;13.360;2023-06-22T05:31:48;6.70;;;5.20;;
3755;SDS011;1893;52.526;13.360;2023-06-22T05:34:14;5.47;;;4.90;;
3755;SDS011;1893;52.526;13.360;2023-06-22T05:36:40;4.27;;;3.87;;
3755;SDS011;1893;52.526;13.360;2023-06-22T05:39:14;5.40;;;4.90;;
3755;SDS011;1893;52.526;13.360;2023-06-22T05:41:40;6.57;;;4.67;;
3755;SDS011;1893;52.526;13.360;2023-06-22T05:44:06;6.07;;;5.47;;
3755;SDS011;1893;52.526;13.360;2023-06-22T05:46:32;6.90;;;4.93;;
3755;SDS011;1893;52.526;13.360;2023-06-22T05:48:58;4.93;;;4.43;;
3755;SDS011;1893;52.526;13.360;2023-06-22T05:51:23;9.10;;;5.33;;
3755;SDS011;1893;52.526;13.360;2023-06-22T05:53:49;7.33;;;5.20;;
3755;SDS011;1893;52.526;13.360;2023-06-22T05:56:15;5.47;;;4.97;;
3755;SDS011;1893;52.526;13.360;2023-06-22T05:58:41;5.40;;;4.90;;
3755;SDS011;1893;52.526;13.360;2023-06-22T06:01:06;5.67;;;5.13;;
3755;SDS011;1893;52.526;13.360;2023-06-22T06:03:32;6.50;;;5.47;;
3755;SDS011;1893;52.526;13.360;2023-06-22T06:05:57;7.57;;;5.73;;
3755;SDS011;1893;52.526;13.360;2023-06-22T06:08:23;8.07;;;5.93;;
3755;SDS011;1893;52.526;13.360;2023-06-22T06:10:50;16.87;;;13.00;;
3755;SDS011;1893;52.526;13.360;2023-06-22T06:13:18;7.17;;;6.47;;
3755;SDS011;1893;52.526;13.360;2023-06-22T06:15:44;8.37;;;7.27;;
3755;SDS011;1893;52.526;13.360;2023-06-22T06:18:09;6.43;;;5.83;;
3755;SDS011;1893;52.526;13.360;2023-06-22T06:20:35;7.70;;;5.73;;
3755;SDS011;1893;52.526;13.360;2023-06-22T06:23:01;14.90;;;6.00;;
3755;SDS011;1893;52.526;13.360;2023-06-22T06:25:26;7.30;;;6.27;;
3755;SDS011;1893;52.526;13.360;2023-06-22T06:27:52;11.53;;;6.70;;
3755;SDS011;1893;52.526;13.360;2023-06-22T06:30:19;8.33;;;6.20;;
3755;SDS011;1893;52.526;13.360;2023-06-22T06:32:46;7.90;;;6.00;;
3755;SDS011;1893;52.526;13.360;2023-06-22T06:35:13;6.60;;;5.87;;
3755;SDS011;1893;52.526;13.360;2023-06-22T06:37:40;7.03;;;5.70;;
3755;SDS011;1893;52.526;13.360;2023-06-22T06:40:08;7.93;;;5.53;;
3755;SDS011;1893;52.526;13.360;2023-06-22T06:42:39;5.23;;;4.70;;
3755;SDS011;1893;52.526;13.360;2023-06-22T06:45:27;7.83;;;5.27;;
3755;SDS011;1893;52.526;13.360;2023-06-22T06:47:53;7.70;;;5.43;;
3755;SDS011;1893;52.526;13.360;2023-06-22T06:50:19;5.53;;;4.33;;
3755;SDS011;1893;52.526;13.360;2023-06-22T06:52:45;5.40;;;4.43;;
3755;SDS011;1893;52.526;13.360;2023-06-22T06:55:11;8.83;;;4.17;;
3755;SDS011;1893;52.526;13.360;2023-06-22T06:57:39;5.20;;;4.80;;
3755;SDS011;1893;52.526;13.360;2023-06-22T07:00:07;8.50;;;4.60;;
3755;SDS011;1893;52.526;13.360;2023-06-22T07:02:38;4.57;;;4.07;;
3755;SDS011;1893;52.526;13.360;2023-06-22T07:05:05;6.03;;;4.20;;
3755;SDS011;1893;52.526;13.360;2023-06-22T07:07:31;5.60;;;3.87;;
3755;SDS011;1893;52.526;13.360;2023-06-22T07:09:57;9.10;;;4.27;;
3755;SDS011;1893;52.526;13.360;2023-06-22T07:12:23;4.40;;;4.00;;
3755;SDS011;1893;52.526;13.360;2023-06-22T07:14:49;6.53;;;4.73;;
3755;SDS011;1893;52.526;13.360;2023-06-22T07:17:15;4.93;;;4.43;;
3755;SDS011;1893;52.526;13.360;2023-06-22T07:19:40;8.23;;;4.77;;
3755;SDS011;1893;52.526;13.360;2023-06-22T07:22:07;5.10;;;4.13;;
3755;SDS011;1893;52.526;13.360;2023-06-22T07:24:32;5.70;;;4.43;;
3755;SDS011;1893;52.526;13.360;2023-06-22T07:26:58;5.80;;;4.30;;
3755;SDS011;1893;52.526;13.360;2023-06-22T07:29:24;5.17;;;3.80;;
3755;SDS011;1893;52.526;13.360;2023-06-22T07:31:51;4.07;;;3.63;;
3755;SDS011;1893;52.526;13.360;2023-06-22T07:34:18;3.97;;;3.67;;
3755;SDS011;1893;52.526;13.360;2023-06-22T07:36:44;8.40;;;4.03;;
3755;SDS011;1893;52.526;13.360;2023-06-22T07:39:11;3.73;;;3.10;;
3755;SDS011;1893;52.526;13.360;2023-06-22T07:41:37;4.13;;;3.37;;
3755;SDS011;1893;52.526;13.360;2023-06-22T07:44:04;3.90;;;2.97;;
3755;SDS011;1893;52.526;13.360;2023-06-22T07:46:31;5.77;;;3.13;;
3755;SDS011;1893;52.526;13.360;2023-06-22T07:48:57;2.90;;;2.70;;
3755;SDS011;1893;52.526;13.360;2023-06-22T07:51:22;3.67;;;3.30;;
3755;SDS011;1893;52.526;13.360;2023-06-22T07:53:49;2.83;;;2.63;;
3755;SDS011;1893;52.526;13.360;2023-06-22T07:56:14;3.50;;;2.93;;
3755;SDS011;1893;52.526;13.360;2023-06-22T07:58:44;5.40;;;2.80;;
3755;SDS011;1893;52.526;13.360;2023-06-22T08:01:11;4.17;;;2.83;;
3755;SDS011;1893;52.526;13.360;2023-06-22T08:03:37;3.20;;;2.60;;
3755;SDS011;1893;52.526;13.360;2023-06-22T08:06:03;3.10;;;2.80;;
3755;SDS011;1893;52.526;13.360;2023-06-22T08:08:28;3.50;;;3.07;;
3755;SDS011;1893;52.526;13.360;2023-06-22T08:10:54;5.63;;;2.50;;
3755;SDS011;1893;52.526;13.360;2023-06-22T08:13:20;2.50;;;2.30;;
3755;SDS011;1893;52.526;13.360;2023-06-22T08:15:45;3.73;;;2.57;;
3755;SDS011;1893;52.526;13.360;2023-06-22T08:18:11;3.90;;;3.07;;
3755;SDS011;1893;52.526;13.360;2023-06-22T08:20:36;5.10;;;3.30;;
3755;SDS011;1893;52.526;13.360;2023-06-22T08:23:02;3.40;;;3.10;;
3755;SDS011;1893;52.526;13.360;2023-06-22T08:25:34;3.70;;;3.40;;
3755;SDS011;1893;52.526;13.360;2023-06-22T08:28:00;5.20;;;3.00;;
3755;SDS011;1893;52.526;13.360;2023-06-22T08:30:27;3.13;;;2.60;;
3755;SDS011;1893;52.526;13.360;2023-06-22T08:32:53;2.90;;;2.67;;
3755;SDS011;1893;52.526;13.360;2023-06-22T08:35:24;3.63;;;2.67;;
3755;SDS011;1893;52.526;13.360;2023-06-22T08:37:50;3.90;;;3.20;;
3755;SDS011;1893;52.526;13.360;2023-06-22T08:40:17;4.27;;;3.07;;
3755;SDS011;1893;52.526;13.360;2023-06-22T08:42:45;8.33;;;2.83;;
3755;SDS011;1893;52.526;13.360;2023-06-22T08:45:11;3.10;;;2.90;;
3755;SDS011;1893;52.526;13.360;2023-06-22T08:47:37;3.40;;;3.07;;
3755;SDS011;1893;52.526;13.360;2023-06-22T08:50:03;4.70;;;3.30;;
3755;SDS011;1893;52.526;13.360;2023-06-22T08:52:29;3.53;;;3.23;;
3755;SDS011;1893;52.526;13.360;2023-06-22T08:54:55;3.37;;;3.07;;
3755;SDS011;1893;52.526;13.360;2023-06-22T08:57:21;3.40;;;3.10;;
3755;SDS011;1893;52.526;13.360;2023-06-22T08:59:47;5.20;;;3.23;;
3755;SDS011;1893;52.526;13.360;2023-06-22T09:02:12;5.40;;;3.70;;
3755;SDS011;1893;52.526;13.360;2023-06-22T09:04:38;5.43;;;3.70;;
3755;SDS011;1893;52.526;13.360;2023-06-22T09:07:03;4.23;;;3.40;;
3755;SDS011;1893;52.526;13.360;2023-06-22T09:09:29;3.40;;;3.10;;
3755;SDS011;1893;52.526;13.360;2023-06-22T09:11:55;4.13;;;3.43;;
3755;SDS011;1893;52.526;13.360;2023-06-22T09:14:21;5.40;;;4.07;;
3755;SDS011;1893;52.526;13.360;2023-06-22T09:16:47;4.20;;;3.80;;
3755;SDS011;1893;52.526;13.360;2023-06-22T09:19:12;4.13;;;3.60;;
3755;SDS011;1893;52.526;13.360;2023-06-22T09:21:38;4.80;;;4.40;;
3755;SDS011;1893;52.526;13.360;2023-06-22T09:24:04;3.27;;;2.93;;
3755;SDS011;1893;52.526;13.360;2023-06-22T09:26:30;5.40;;;3.37;;
3755;SDS011;1893;52.526;13.360;2023-06-22T09:28:55;5.03;;;3.23;;
3755;SDS011;1893;52.526;13.360;2023-06-22T09:31:22;3.77;;;3.47;;
3755;SDS011;1893;52.526;13.360;2023-06-22T09:33:54;3.40;;;3.10;;
3755;SDS011;1893;52.526;13.360;2023-06-22T09:36:23;3.63;;;3.13;;
3755;SDS011;1893;52.526;13.360;2023-06-22T09:38:49;5.43;;;3.47;;
3755;SDS011;1893;52.526;13.360;2023-06-22T09:41:23;4.10;;;3.60;;
3755;SDS011;1893;52.526;13.360;2023-06-22T09:43:49;5.00;;;4.60;;
3755;SDS011;1893;52.526;13.360;2023-06-22T09:46:15;6.60;;;3.73;;
3755;SDS011;1893;52.526;13.360;2023-06-22T09:48:41;4.80;;;3.90;;
3755;SDS011;1893;52.526;13.360;2023-06-22T09:51:06;4.17;;;3.10;;
3755;SDS011;1893;52.526;13.360;2023-06-22T09:53:32;3.40;;;3.20;;
3755;SDS011;1893;52.526;13.360;2023-06-22T09:55:59;4.13;;;3.83;;
3755;SDS011;1893;52.526;13.360;2023-06-22T09:58:25;4.50;;;3.83;;
3755;SDS011;1893;52.526;13.360;2023-06-22T10:00:51;4.87;;;4.40;;
3755;SDS011;1893;52.526;13.360;2023-06-22T10:03:18;4.13;;;3.73;;
3755;SDS011;1893;52.526;13.360;2023-06-22T10:05:43;3.73;;;3.53;;
3755;SDS011;1893;52.526;13.360;2023-06-22T10:08:09;4.10;;;3.70;;
3755;SDS011;1893;52.526;13.360;2023-06-22T10:10:35;7.47;;;4.23;;
3755;SDS011;1893;52.526;13.360;2023-06-22T10:13:10;4.00;;;3.63;;
3755;SDS011;1893;52.526;13.360;2023-06-22T10:15:36;4.93;;;4.43;;
3755;SDS011;1893;52.526;13.360;2023-06-22T10:18:03;4.73;;;4.13;;
3755;SDS011;1893;52.526;13.360;2023-06-22T10:20:29;5.83;;;4.30;;
3755;SDS011;1893;52.526;13.360;2023-06-22T10:22:54;4.50;;;4.10;;
3755;SDS011;1893;52.526;13.360;2023-06-22T10:25:20;9.13;;;3.77;;
3755;SDS011;1893;52.526;13.360;2023-06-22T10:27:46;4.70;;;4.20;;
3755;SDS011;1893;52.526;13.360;2023-06-22T10:30:12;5.70;;;3.70;;
3755;SDS011;1893;52.526;13.360;2023-06-22T10:32:39;4.93;;;4.53;;
3755;SDS011;1893;52.526;13.360;2023-06-22T10:35:05;4.90;;;4.43;;
3755;SDS011;1893;52.526;13.360;2023-06-22T10:37:31;5.47;;;3.97;;
3755;SDS011;1893;52.526;13.360;2023-06-22T10:39:57;5.53;;;3.93;;
3755;SDS011;1893;52.526;13.360;2023-06-22T10:42:23;4.27;;;3.97;;
3755;SDS011;1893;52.526;13.360;2023-06-22T10:44:48;4.80;;;3.90;;
3755;SDS011;1893;52.526;13.360;2023-06-22T10:47:14;5.20;;;4.70;;
3755;SDS011;1893;52.526;13.360;2023-06-22T10:49:40;4.77;;;4.40;;
3755;SDS011;1893;52.526;13.360;2023-06-22T10:52:06;12.20;;;4.80;;
3755;SDS011;1893;52.526;13.360;2023-06-22T10:54:35;4.17;;;3.87;;
3755;SDS011;1893;52.526;13.360;2023-06-22T10:57:01;6.23;;;4.77;;
3755;SDS011;1893;52.526;13.360;2023-06-22T10:59:28;5.13;;;4.73;;
3755;SDS011;1893;52.526;13.360;2023-06-22T11:01:55;4.53;;;4.13;;
3755;SDS011;1893;52.526;13.360;2023-06-22T11:04:21;6.27;;;4.80;;
3755;SDS011;1893;52.526;13.360;2023-06-22T11:06:48;4.40;;;4.00;;
3755;SDS011;1893;52.526;13.360;2023-06-22T11:09:13;5.20;;;4.70;;
3755;SDS011;1893;52.526;13.360;2023-06-22T11:11:44;5.70;;;4.50;;
3755;SDS011;1893;52.526;13.360;2023-06-22T11:14:10;4.90;;;4.43;;
3755;SDS011;1893;52.526;13.360;2023-06-22T11:16:35;4.57;;;4.20;;
3755;SDS011;1893;52.526;13.360;2023-06-22T11:19:01;4.67;;;4.37;;
3755;SDS011;1893;52.526;13.360;2023-06-22T11:21:28;6.47;;;4.37;;
3755;SDS011;1893;52.526;13.360;2023-06-22T11:23:53;5.87;;;5.30;;
3755;SDS011;1893;52.526;13.360;2023-06-22T11:26:19;4.90;;;4.40;;
3755;SDS011;1893;52.526;13.360;2023-06-22T11:28:46;7.27;;;5.27;;
3755;SDS011;1893;52.526;13.360;2023-06-22T11:31:11;6.20;;;4.80;;
3755;SDS011;1893;52.526;13.360;2023-06-22T11:33:37;5.20;;;4.70;;
3755;SDS011;1893;52.526;13.360;2023-06-22T11:36:03;4.90;;;4.50;;
3755;SDS011;1893;52.526;13.360;2023-06-22T11:38:28;4.90;;;4.40;;
3755;SDS011;1893;52.526;13.360;2023-06-22T11:40:55;5.20;;;4.70;;
3755;SDS011;1893;52.526;13.360;2023-06-22T11:43:22;5.10;;;4.70;;
3755;SDS011;1893;52.526;13.360;2023-06-22T11:45:48;4.03;;;3.77;;
3755;SDS011;1893;52.526;13.360;2023-06-22T11:48:14;4.97;;;4.47;;
3755;SDS011;1893;52.526;13.360;2023-06-22T11:50:39;5.53;;;5.03;;
3755;SDS011;1893;52.526;13.360;2023-06-22T11:53:05;5.63;;;5.10;;
3755;SDS011;1893;52.526;13.360;2023-06-22T11:55:30;5.20;;;4.80;;
3755;SDS011;1893;52.526;13.360;2023-06-22T11:57:56;4.03;;;3.70;;
3755;SDS011;1893;52.526;13.360;2023-06-22T12:00:25;4.57;;;4.27;;
3755;SDS011;1893;52.526;13.360;2023-06-22T12:02:51;5.10;;;4.70;;
3755;SDS011;1893;52.526;13.360;2023-06-22T12:05:20;7.37;;;5.07;;
3755;SDS011;1893;52.526;13.360;2023-06-22T12:07:47;5.33;;;4.10;;
3755;SDS011;1893;52.526;13.360;2023-06-22T12:10:13;5.73;;;5.20;;
3755;SDS011;1893;52.526;13.360;2023-06-22T12:12:39;4.83;;;4.43;;
3755;SDS011;1893;52.526;13.360;2023-06-22T12:15:05;5.40;;;4.90;;
3755;SDS011;1893;52.526;13.360;2023-06-22T12:17:31;5.00;;;4.60;;
3755;SDS011;1893;52.526;13.360;2023-06-22T12:19:57;5.37;;;4.97;;
3755;SDS011;1893;52.526;13.360;2023-06-22T12:22:23;5.63;;;5.23;;
3755;SDS011;1893;52.526;13.360;2023-06-22T12:24:49;6.03;;;5.40;;
3755;SDS011;1893;52.526;13.360;2023-06-22T12:27:14;5.30;;;4.80;;
3755;SDS011;1893;52.526;13.360;2023-06-22T12:29:43;5.13;;;3.90;;
3755;SDS011;1893;52.526;13.360;2023-06-22T12:32:10;5.50;;;5.00;;
3755;SDS011;1893;52.526;13.360;2023-06-22T12:34:38;4.77;;;3.93;;
3755;SDS011;1893;52.526;13.360;2023-06-22T12:37:04;4.47;;;4.07;;
3755;SDS011;1893;52.526;13.360;2023-06-22T12:39:30;4.53;;;4.13;;
3755;SDS011;1893;52.526;13.360;2023-06-22T12:41:56;5.27;;;4.83;;
3755;SDS011;1893;52.526;13.360;2023-06-22T12:44:22;4.87;;;4.57;;
3755;SDS011;1893;52.526;13.360;2023-06-22T12:46:48;8.07;;;4.80;;
3755;SDS011;1893;52.526;13.360;2023-06-22T12:49:13;6.50;;;4.77;;
3755;SDS011;1893;52.526;13.360;2023-06-22T12:51:39;5.37;;;4.97;;
3755;SDS011;1893;52.526;13.360;2023-06-22T12:54:06;5.37;;;4.97;;
3755;SDS011;1893;52.526;13.360;2023-06-22T12:56:32;7.50;;;5.30;;
3755;SDS011;1893;52.526;13.360;2023-06-22T12:58:58;6.30;;;4.90;;
3755;SDS011;1893;52.526;13.360;2023-06-22T13:01:26;5.70;;;5.00;;
3755;SDS011;1893;52.526;13.360;2023-06-22T13:03:52;5.77;;;5.33;;
3755;SDS011;1893;52.526;13.360;2023-06-22T13:06:18;5.30;;;4.90;;
3755;SDS011;1893;52.526;13.360;2023-06-22T13:08:44;7.53;;;4.97;;
3755;SDS011;1893;52.526;13.360;2023-06-22T13:11:10;5.53;;;4.80;;
3755;SDS011;1893;52.526;13.360;2023-06-22T13:13:35;5.40;;;4.90;;
3755;SDS011;1893;52.526;13.360;2023-06-22T13:16:01;8.70;;;5.60;;
3755;SDS011;1893;52.526;13.360;2023-06-22T13:18:27;5.43;;;4.63;;
3755;SDS011;1893;52.526;13.360;2023-06-22T13:20:52;5.53;;;4.63;;
3755;SDS011;1893;52.526;13.360;2023-06-22T13:23:19;6.67;;;5.00;;
3755;SDS011;1893;52.526;13.360;2023-06-22T13:25:46;9.80;;;5.47;;
3755;SDS011;1893;52.526;13.360;2023-06-22T13:28:11;7.03;;;4.73;;
3755;SDS011;1893;52.526;13.360;2023-06-22T13:30:38;6.00;;;5.40;;
3755;SDS011;1893;52.526;13.360;2023-06-22T13:33:05;6.47;;;5.87;;
3755;SDS011;1893;52.526;13.360;2023-06-22T13:35:31;6.10;;;5.50;;
3755;SDS011;1893;52.526;13.360;2023-06-22T13:37:56;5.57;;;5.13;;
3755;SDS011;1893;52.526;13.360;2023-06-22T13:40:22;6.33;;;5.63;;
3755;SDS011;1893;52.526;13.360;2023-06-22T13:42:48;5.83;;;4.50;;
3755;SDS011;1893;52.526;13.360;2023-06-22T13:45:13;5.30;;;4.90;;
3755;SDS011;1893;52.526;13.360;2023-06-22T13:47:42;5.37;;;4.87;;
3755;SDS011;1893;52.526;13.360;2023-06-22T13:50:07;5.40;;;4.90;;
3755;SDS011;1893;52.526;13.360;2023-06-22T13:52:34;4.97;;;4.47;;
3755;SDS011;1893;52.526;13.360;2023-06-22T13:54:59;5.80;;;4.57;;
3755;SDS011;1893;52.526;13.360;2023-06-22T13:57:25;5.23;;;4.83;;
3755;SDS011;1893;52.526;13.360;2023-06-22T13:59:51;6.87;;;4.50;;
3755;SDS011;1893;52.526;13.360;2023-06-22T14:02:16;5.30;;;4.90;;
3755;SDS011;1893;52.526;13.360;2023-06-22T14:04:42;5.57;;;5.07;;
3755;SDS011;1893;52.526;13.360;2023-06-22T14:07:07;5.47;;;4.97;;
3755;SDS011;1893;52.526;13.360;2023-06-22T14:09:33;8.07;;;6.10;;
3755;SDS011;1893;52.526;13.360;2023-06-22T14:12:02;5.57;;;5.07;;
3755;SDS011;1893;52.526;13.360;2023-06-22T14:14:29;6.80;;;5.37;;
3755;SDS011;1893;52.526;13.360;2023-06-22T14:16:55;5.93;;;5.40;;
3755;SDS011;1893;52.526;13.360;2023-06-22T14:19:21;6.20;;;4.87;;
3755;SDS011;1893;52.526;13.360;2023-06-22T14:21:46;7.93;;;6.17;;
3755;SDS011;1893;52.526;13.360;2023-06-22T14:24:12;6.23;;;5.43;;
3755;SDS011;1893;52.526;13.360;2023-06-22T14:26:38;5.70;;;5.30;;
3755;SDS011;1893;52.526;13.360;2023-06-22T14:29:03;5.50;;;5.00;;
3755;SDS011;1893;52.526;13.360;2023-06-22T14:31:29;5.00;;;4.57;;
3755;SDS011;1893;52.526;13.360;2023-06-22T14:33:54;6.73;;;5.93;;
3755;SDS011;1893;52.526;13.360;2023-06-22T14:36:20;6.20;;;5.70;;
3755;SDS011;1893;52.526;13.360;2023-06-22T14:38:45;6.47;;;5.73;;
3755;SDS011;1893;52.526;13.360;2023-06-22T14:41:11;5.77;;;5.30;;
3755;SDS011;1893;52.526;13.360;2023-06-22T14:43:37;6.30;;;5.80;;
3755;SDS011;1893;52.526;13.360;2023-06-22T14:46:02;6.00;;;5.60;;
3755;SDS011;1893;52.526;13.360;2023-06-22T14:48:28;6.10;;;5.60;;
3755;SDS011;1893;52.526;13.360;2023-06-22T14:50:54;6.70;;;5.40;;
3755;SDS011;1893;52.526;13.360;2023-06-22T14:53:20;5.47;;;5.07;;
3755;SDS011;1893;52.526;13.360;2023-06-22T14:55:45;6.10;;;5.50;;
3755;SDS011;1893;52.526;13.360;2023-06-22T14:58:11;6.63;;;5.40;;
3755;SDS011;1893;52.526;13.360;2023-06-22T15:00:37;4.93;;;4.57;;
3755;SDS011;1893;52.526;13.360;2023-06-22T15:03:03;5.47;;;5.00;;
3755;SDS011;1893;52.526;13.360;2023-06-22T15:05:31;5.93;;;5.43;;
3755;SDS011;1893;52.526;13.360;2023-06-22T15:07:57;5.83;;;5.33;;
3755;SDS011;1893;52.526;13.360;2023-06-22T15:10:23;5.17;;;4.73;;
3755;SDS011;1893;52.526;13.360;2023-06-22T15:12:49;5.20;;;4.90;;
3755;SDS011;1893;52.526;13.360;2023-06-22T15:15:15;6.50;;;5.73;;